Time;durP1;ratioP1;P1;durP2;ratioP2;P2;SDS_P1;SDS_P2;PMS_P1;PMS_P2;Temp;Humidity;BMP_temperature;BMP_pressure;BME280_temperature;BME280_humidity;BME280_pressure;Samples;Min_cycle;Max_cycle;Signal;HPM_P1;HPM_P2
2023/09/28 00:01:17;;;;;;;14.52;2.70;;;17.20;99.90;;;;;;5108487;28;20398;-85
2023/09/28 00:03:43;;;;;;;17.00;2.97;;;17.20;99.90;;;;;;5109484;28;20083;-85
2023/09/28 00:06:09;;;;;;;7.95;2.28;;;17.10;99.90;;;;;;5089939;28;20103;-83
2023/09/28 00:08:34;;;;;;;8.75;2.47;;;17.10;99.90;;;;;;5108134;28;20128;-84
2023/09/28 00:11:00;;;;;;;14.50;2.90;;;17.10;99.90;;;;;;5109933;28;20020;-86
2023/09/28 00:13:26;;;;;;;7.85;2.10;;;17.10;99.90;;;;;;5109347;28;20028;-84
2023/09/28 00:15:51;;;;;;;13.00;2.42;;;17.10;99.90;;;;;;5090969;28;20267;-84
2023/09/28 00:18:17;;;;;;;12.60;2.53;;;17.10;99.90;;;;;;5110961;28;20491;-83
2023/09/28 00:20:43;;;;;;;7.75;2.22;;;17.00;99.90;;;;;;5113154;28;20020;-83
2023/09/28 00:23:09;;;;;;;12.10;2.42;;;17.10;99.90;;;;;;5095352;28;20055;-85
2023/09/28 00:25:35;;;;;;;13.10;2.38;;;17.00;99.90;;;;;;5095090;28;20451;-85
2023/09/28 00:28:00;;;;;;;12.20;2.70;;;17.00;99.90;;;;;;5096157;28;20027;-84
2023/09/28 00:30:26;;;;;;;14.45;2.70;;;17.00;99.90;;;;;;5095251;28;20024;-85
2023/09/28 00:32:54;;;;;;;9.88;2.78;;;17.00;99.90;;;;;;5112800;28;20526;-84
2023/09/28 00:35:21;;;;;;;10.73;2.40;;;17.00;99.90;;;;;;5094035;28;20073;-84
2023/09/28 00:37:48;;;;;;;10.13;2.35;;;17.00;99.90;;;;;;5110944;28;20040;-84
2023/09/28 00:42:47;;;;;;;7.40;2.30;;;16.90;99.90;;;;;;5111357;28;20031;-84
2023/09/28 00:45:13;;;;;;;8.05;2.30;;;16.80;99.90;;;;;;5093897;28;20498;-83
2023/09/28 00:47:39;;;;;;;16.00;3.22;;;16.80;99.90;;;;;;5101292;28;20085;-85
2023/09/28 00:50:11;;;;;;;11.68;2.55;;;16.80;99.90;;;;;;5106622;28;20102;-83
2023/09/28 00:52:49;;;;;;;13.57;2.97;;;16.70;99.90;;;;;;5110832;28;20047;-84
2023/09/28 00:55:17;;;;;;;17.23;2.78;;;16.70;99.90;;;;;;5112348;28;20020;-84
2023/09/28 00:57:44;;;;;;;10.85;2.45;;;16.70;99.90;;;;;;5111642;28;20032;-86
2023/09/28 01:00:26;;;;;;;16.15;2.53;;;16.60;99.90;;;;;;5103595;28;20020;-85
2023/09/28 01:02:54;;;;;;;10.93;2.22;;;16.60;99.90;;;;;;5086477;28;20032;-84
2023/09/28 01:05:26;;;;;;;14.07;2.72;;;16.50;99.90;;;;;;5111421;28;20103;-84
2023/09/28 01:07:53;;;;;;;10.70;2.75;;;16.40;99.90;;;;;;5092414;28;20415;-83
2023/09/28 01:10:24;;;;;;;11.23;2.40;;;16.40;99.90;;;;;;5086780;28;20106;-84
2023/09/28 01:12:51;;;;;;;12.05;2.55;;;16.30;99.90;;;;;;5083915;28;20031;-84
2023/09/28 01:15:16;;;;;;;8.70;2.30;;;16.30;99.90;;;;;;5112627;28;20141;-84
2023/09/28 01:17:43;;;;;;;8.82;2.45;;;16.40;99.90;;;;;;5092451;28;20134;-84
2023/09/28 01:20:35;;;;;;;9.27;2.50;;;16.40;99.90;;;;;;5094248;28;20491;-84
2023/09/28 01:23:01;;;;;;;8.55;2.28;;;16.30;99.90;;;;;;5111145;28;20031;-84
2023/09/28 01:25:27;;;;;;;8.32;2.50;;;16.30;99.90;;;;;;5110793;28;20018;-83
2023/09/28 01:27:54;;;;;;;18.73;3.05;;;16.30;99.90;;;;;;5091674;28;20028;-83
2023/09/28 01:30:20;;;;;;;10.48;2.45;;;16.30;99.90;;;;;;5072329;28;20141;-84
2023/09/28 01:32:46;;;;;;;9.45;2.45;;;16.30;99.90;;;;;;5103304;28;20036;-84
2023/09/28 01:35:12;;;;;;;11.07;2.30;;;16.30;99.90;;;;;;5109606;28;20027;-84
2023/09/28 01:37:59;;;;;;;11.60;2.42;;;16.30;99.90;;;;;;5111233;28;20039;-83
2023/09/28 01:40:25;;;;;;;10.18;2.60;;;16.40;99.90;;;;;;5110930;28;20024;-83
2023/09/28 01:42:51;;;;;;;14.45;2.83;;;16.40;99.90;;;;;;5108408;28;20392;-84
2023/09/28 01:45:17;;;;;;;20.77;3.08;;;16.40;99.90;;;;;;5111046;28;20019;-84
2023/09/28 01:47:42;;;;;;;12.32;2.53;;;16.40;99.90;;;;;;5111167;28;20027;-84
2023/09/28 01:50:08;;;;;;;14.43;2.80;;;16.40;99.90;;;;;;5092869;28;20059;-83
2023/09/28 01:52:34;;;;;;;14.45;2.92;;;16.40;99.90;;;;;;5093448;28;20027;-84
2023/09/28 01:55:00;;;;;;;12.20;2.90;;;16.40;99.90;;;;;;5089307;28;20394;-84
2023/09/28 01:57:25;;;;;;;14.25;2.28;;;16.40;99.90;;;;;;5108364;28;20031;-84
2023/09/28 01:59:51;;;;;;;12.10;2.65;;;16.40;99.90;;;;;;5111709;28;20080;-85
2023/09/28 02:02:16;;;;;;;17.92;3.30;;;16.40;99.90;;;;;;5110653;28;20024;-84
2023/09/28 02:04:42;;;;;;;13.30;2.92;;;16.40;99.90;;;;;;5092294;28;20023;-84
2023/09/28 02:07:08;;;;;;;12.40;2.95;;;16.50;99.90;;;;;;5110206;28;20047;-83
2023/09/28 02:09:34;;;;;;;14.93;2.95;;;16.50;99.90;;;;;;5112351;28;20479;-83
2023/09/28 02:12:01;;;;;;;14.75;2.60;;;16.50;99.90;;;;;;5093131;28;20034;-85
2023/09/28 02:14:27;;;;;;;8.00;2.40;;;16.50;99.90;;;;;;5111446;28;20012;-83
2023/09/28 02:16:52;;;;;;;17.58;3.10;;;16.50;99.90;;;;;;5093232;28;20027;-84
2023/09/28 02:19:18;;;;;;;11.48;2.65;;;16.50;99.90;;;;;;5093656;28;20028;-83
2023/09/28 02:21:44;;;;;;;10.05;2.05;;;16.60;99.90;;;;;;5090631;28;20070;-84
2023/09/28 02:24:11;;;;;;;14.20;2.42;;;16.50;99.90;;;;;;5099107;28;20016;-83
2023/09/28 02:26:36;;;;;;;10.40;2.85;;;16.50;99.90;;;;;;5111996;28;20015;-84
2023/09/28 02:29:02;;;;;;;12.82;2.67;;;16.50;99.90;;;;;;5111056;28;20049;-84
2023/09/28 02:31:28;;;;;;;13.63;2.78;;;16.40;99.90;;;;;;5111144;28;20387;-84
2023/09/28 02:33:54;;;;;;;14.90;3.33;;;16.50;99.90;;;;;;5088503;28;20035;-84
2023/09/28 02:36:20;;;;;;;20.50;3.20;;;16.50;99.90;;;;;;5106741;28;20019;-84
2023/09/28 02:38:47;;;;;;;10.05;2.83;;;16.50;99.90;;;;;;5091769;28;20517;-84
2023/09/28 02:41:20;;;;;;;12.85;2.55;;;16.50;99.90;;;;;;5109287;28;20083;-84
2023/09/28 02:43:45;;;;;;;16.90;3.22;;;16.50;99.90;;;;;;5100319;28;20020;-83
2023/09/28 02:46:12;;;;;;;14.10;2.67;;;16.50;99.90;;;;;;5110078;28;20099;-84
2023/09/28 02:48:37;;;;;;;16.55;2.67;;;16.60;99.90;;;;;;5111163;28;20094;-84
2023/09/28 02:51:04;;;;;;;11.25;2.75;;;16.60;99.90;;;;;;5109627;28;20475;-84
2023/09/28 02:53:30;;;;;;;17.30;3.30;;;16.60;99.90;;;;;;5090488;28;20222;-82
2023/09/28 02:55:56;;;;;;;12.90;3.47;;;16.60;99.90;;;;;;5109227;28;20139;-84
2023/09/28 02:58:24;;;;;;;12.57;2.78;;;16.60;99.90;;;;;;5093849;28;20051;-84
2023/09/28 03:00:53;;;;;;;11.73;2.97;;;16.50;99.90;;;;;;5090256;28;20107;-83
2023/09/28 03:03:19;;;;;;;12.40;2.95;;;16.50;99.90;;;;;;5105643;28;20037;-84
2023/09/28 03:05:45;;;;;;;13.00;2.70;;;16.50;99.90;;;;;;5109419;28;20094;-84
2023/09/28 03:08:14;;;;;;;17.33;3.72;;;16.50;99.90;;;;;;5109847;28;20349;-84
2023/09/28 03:10:43;;;;;;;13.30;2.60;;;16.40;99.90;;;;;;5108834;28;20016;-84
2023/09/28 03:13:08;;;;;;;9.90;2.63;;;16.40;99.90;;;;;;5108822;28;20028;-85
2023/09/28 03:15:35;;;;;;;13.63;2.60;;;16.40;99.90;;;;;;5110251;28;20061;-86
2023/09/28 03:18:02;;;;;;;9.52;2.38;;;16.50;99.90;;;;;;5106243;28;20130;-84
2023/09/28 03:20:30;;;;;;;13.75;2.50;;;16.50;99.90;;;;;;5095400;28;20027;-86
2023/09/28 03:22:55;;;;;;;11.85;2.55;;;16.40;99.90;;;;;;5090908;28;20026;-84
2023/09/28 03:25:22;;;;;;;10.90;2.47;;;16.40;99.90;;;;;;5091738;28;20122;-84
2023/09/28 03:27:55;;;;;;;9.52;2.15;;;16.40;99.90;;;;;;5106779;28;20108;-84
2023/09/28 03:30:25;;;;;;;11.32;2.78;;;16.40;99.90;;;;;;5107164;28;20020;-84
2023/09/28 03:32:52;;;;;;;11.07;2.72;;;16.30;99.90;;;;;;5108756;28;20062;-85
2023/09/28 03:35:19;;;;;;;10.88;2.60;;;16.20;99.90;;;;;;5109899;28;20020;-84
2023/09/28 03:37:46;;;;;;;11.82;2.78;;;16.10;99.90;;;;;;5090436;28;20035;-85
2023/09/28 03:40:13;;;;;;;11.00;2.75;;;16.00;99.90;;;;;;5089883;28;20055;-85
2023/09/28 03:42:50;;;;;;;9.70;2.47;;;16.00;99.90;;;;;;5108481;28;20106;-84
2023/09/28 03:45:20;;;;;;;11.90;2.70;;;16.00;99.90;;;;;;5108823;28;20036;-83
2023/09/28 03:47:48;;;;;;;11.90;2.35;;;15.90;99.90;;;;;;5109658;28;20398;-84
2023/09/28 03:50:14;;;;;;;13.30;2.72;;;15.90;99.90;;;;;;5108212;28;20513;-83
2023/09/28 03:52:41;;;;;;;11.02;2.45;;;15.90;99.90;;;;;;5109924;28;20095;-84
2023/09/28 03:55:12;;;;;;;9.90;2.53;;;15.90;99.90;;;;;;5090458;28;20506;-84
2023/09/28 03:57:38;;;;;;;9.65;2.63;;;15.90;99.90;;;;;;5108823;28;20092;-84
2023/09/28 04:00:06;;;;;;;10.98;2.55;;;15.90;99.90;;;;;;5106409;28;20106;-86
2023/09/28 04:02:32;;;;;;;8.88;2.75;;;15.80;99.90;;;;;;5106342;28;20059;-85
2023/09/28 04:04:58;;;;;;;11.30;3.45;;;15.80;99.90;;;;;;5089154;28;20074;-85
2023/09/28 04:07:23;;;;;;;12.93;2.75;;;15.80;99.90;;;;;;5086930;28;20115;-84
2023/09/28 04:09:49;;;;;;;12.82;2.88;;;15.80;99.90;;;;;;5089121;28;20027;-84
2023/09/28 04:12:15;;;;;;;10.73;2.70;;;15.80;99.90;;;;;;5089163;28;20065;-84
2023/09/28 04:14:41;;;;;;;10.82;2.35;;;15.80;99.90;;;;;;5089757;28;20020;-85
2023/09/28 04:17:06;;;;;;;15.20;3.13;;;15.90;99.90;;;;;;5088911;28;20387;-84
2023/09/28 04:19:33;;;;;;;8.68;2.30;;;15.90;99.90;;;;;;5088883;28;20036;-84
2023/09/28 04:21:59;;;;;;;12.05;2.35;;;15.90;99.90;;;;;;5090884;28;20020;-85
2023/09/28 04:24:24;;;;;;;10.60;2.35;;;15.90;99.90;;;;;;5108961;28;20027;-84
2023/09/28 04:26:51;;;;;;;10.70;2.50;;;15.90;99.90;;;;;;5108894;28;20372;-85
2023/09/28 04:29:16;;;;;;;14.40;2.75;;;16.00;99.90;;;;;;5108932;28;20031;-83
2023/09/28 04:31:42;;;;;;;17.00;2.97;;;15.90;99.90;;;;;;5109858;28;20028;-86
2023/09/28 04:34:08;;;;;;;16.80;3.17;;;16.00;99.90;;;;;;5108822;28;20024;-87
2023/09/28 04:36:38;;;;;;;12.68;2.88;;;16.00;99.90;;;;;;5106549;28;20432;-83
2023/09/28 04:39:04;;;;;;;9.95;2.53;;;16.00;99.90;;;;;;5086694;28;20038;-83
2023/09/28 04:41:30;;;;;;;15.40;2.67;;;16.00;99.90;;;;;;5108336;28;20397;-83
2023/09/28 04:43:55;;;;;;;13.95;2.80;;;16.00;99.90;;;;;;5082131;28;20557;-83
2023/09/28 04:46:21;;;;;;;13.27;2.80;;;16.00;99.90;;;;;;5090943;28;20027;-83
2023/09/28 04:48:47;;;;;;;13.20;2.75;;;16.00;99.90;;;;;;5082295;28;20502;-84
2023/09/28 04:51:13;;;;;;;13.98;3.00;;;16.10;99.90;;;;;;5107001;28;20122;-85
2023/09/28 04:53:38;;;;;;;15.80;2.75;;;16.10;99.90;;;;;;5089740;28;20407;-83
2023/09/28 04:56:12;;;;;;;10.57;2.83;;;16.20;99.90;;;;;;5108599;28;20486;-84
2023/09/28 04:58:38;;;;;;;15.18;3.20;;;16.20;99.90;;;;;;5108424;28;20080;-84
2023/09/28 05:01:07;;;;;;;14.38;2.80;;;16.20;99.90;;;;;;5108833;28;20030;-85
2023/09/28 05:03:33;;;;;;;19.85;2.97;;;16.30;99.90;;;;;;5109320;28;20023;-84
2023/09/28 05:05:59;;;;;;;12.45;3.50;;;16.30;99.90;;;;;;5111003;28;20479;-85
2023/09/28 05:08:25;;;;;;;11.65;3.10;;;16.30;99.90;;;;;;5111067;28;20072;-84
2023/09/28 05:10:52;;;;;;;15.48;3.28;;;16.30;99.90;;;;;;5093901;28;20032;-85
2023/09/28 05:13:18;;;;;;;14.07;2.75;;;16.40;99.90;;;;;;5111800;28;20100;-83
2023/09/28 05:15:43;;;;;;;15.48;3.03;;;16.40;99.90;;;;;;5112736;28;20073;-83
2023/09/28 05:18:09;;;;;;;16.98;3.28;;;16.40;99.90;;;;;;5093991;28;20031;-84
2023/09/28 05:20:34;;;;;;;13.65;2.83;;;16.40;99.90;;;;;;5112214;28;20038;-84
2023/09/28 05:23:00;;;;;;;18.23;2.90;;;16.30;99.90;;;;;;5092329;28;20024;-85
2023/09/28 05:25:25;;;;;;;20.23;3.20;;;16.40;99.90;;;;;;5111580;28;20034;-84
2023/09/28 05:27:54;;;;;;;14.63;2.80;;;16.30;99.90;;;;;;5111517;28;20085;-84
2023/09/28 05:30:20;;;;;;;12.18;2.45;;;16.40;99.90;;;;;;5111906;28;20019;-84
2023/09/28 05:32:45;;;;;;;14.60;3.15;;;16.30;99.90;;;;;;5094299;28;20051;-87
2023/09/28 05:35:11;;;;;;;8.70;2.67;;;16.40;99.90;;;;;;5111493;28;20020;-86
2023/09/28 05:37:37;;;;;;;13.52;2.83;;;16.40;99.90;;;;;;5110323;28;20286;-84
2023/09/28 05:40:04;;;;;;;15.35;2.70;;;16.30;99.90;;;;;;5093357;28;20031;-85
2023/09/28 05:42:33;;;;;;;15.30;2.57;;;16.30;99.90;;;;;;5112023;28;20466;-83
2023/09/28 05:44:59;;;;;;;12.02;2.70;;;16.30;99.90;;;;;;5093609;28;20023;-83
2023/09/28 05:47:24;;;;;;;15.73;3.35;;;16.30;99.90;;;;;;5111524;28;20368;-83
2023/09/28 05:49:52;;;;;;;15.18;3.35;;;16.30;99.90;;;;;;5111538;28;20139;-84
2023/09/28 05:52:18;;;;;;;11.73;2.78;;;16.30;99.90;;;;;;5110342;28;20506;-83
2023/09/28 05:54:44;;;;;;;18.73;3.17;;;16.20;99.90;;;;;;5112691;28;20027;-84
2023/09/28 05:57:11;;;;;;;10.60;2.75;;;16.20;99.90;;;;;;5109766;27;20161;-83
2023/09/28 05:59:36;;;;;;;12.98;2.80;;;16.20;99.90;;;;;;5109861;28;20032;-86
2023/09/28 06:02:02;;;;;;;11.13;2.63;;;16.20;99.90;;;;;;5092530;28;20079;-82
2023/09/28 06:04:28;;;;;;;12.40;3.08;;;16.20;99.90;;;;;;5090243;28;20027;-87
2023/09/28 06:06:53;;;;;;;13.63;3.50;;;16.10;99.90;;;;;;5111091;28;20028;-83
2023/09/28 06:09:19;;;;;;;14.88;3.05;;;16.10;99.90;;;;;;5091646;28;20165;-84
2023/09/28 06:11:46;;;;;;;18.48;3.40;;;16.10;99.90;;;;;;5091010;28;20027;-84
2023/09/28 06:14:14;;;;;;;13.40;2.75;;;16.20;99.90;;;;;;5110445;28;20027;-85
2023/09/28 06:16:42;;;;;;;16.58;3.25;;;16.20;99.90;;;;;;5088663;28;20028;-83
2023/09/28 06:19:08;;;;;;;19.10;3.58;;;16.20;99.90;;;;;;5092450;28;20394;-83
2023/09/28 06:21:34;;;;;;;16.65;3.42;;;16.20;99.90;;;;;;5092264;28;20475;-83
2023/09/28 06:23:59;;;;;;;13.30;3.03;;;16.20;99.90;;;;;;5110759;28;20030;-83
2023/09/28 06:26:26;;;;;;;20.55;2.92;;;16.20;99.90;;;;;;5109765;28;20023;-83
2023/09/28 06:28:51;;;;;;;14.15;3.17;;;16.20;99.90;;;;;;5110680;28;20016;-83
2023/09/28 06:31:19;;;;;;;11.65;3.20;;;16.20;99.90;;;;;;5111146;28;20034;-83
2023/09/28 06:33:45;;;;;;;14.02;3.47;;;16.20;99.90;;;;;;5109094;28;20024;-85
2023/09/28 06:36:12;;;;;;;15.23;3.13;;;16.20;99.90;;;;;;5110307;28;20111;-84
2023/09/28 06:38:37;;;;;;;15.55;2.95;;;16.20;99.90;;;;;;5110563;28;20024;-84
2023/09/28 06:41:03;;;;;;;15.55;3.00;;;16.20;99.90;;;;;;5109985;28;20030;-84
2023/09/28 06:43:29;;;;;;;17.52;3.20;;;16.20;99.90;;;;;;5109805;28;20098;-83
2023/09/28 06:45:58;;;;;;;16.45;3.10;;;16.20;99.90;;;;;;5106633;28;20557;-83
2023/09/28 06:48:24;;;;;;;12.70;3.20;;;16.20;99.90;;;;;;5089254;28;20028;-83
2023/09/28 06:50:50;;;;;;;13.48;3.38;;;16.20;99.90;;;;;;5090700;28;20209;-84
2023/09/28 06:53:16;;;;;;;18.17;3.03;;;16.20;99.90;;;;;;5087681;28;20414;-83
2023/09/28 06:55:44;;;;;;;14.95;2.90;;;16.30;99.90;;;;;;5108907;28;20030;-83
2023/09/28 06:58:13;;;;;;;15.32;3.17;;;16.30;99.90;;;;;;5109585;28;20032;-87
2023/09/28 07:00:39;;;;;;;13.02;2.83;;;16.30;99.90;;;;;;5091811;28;20055;-84
2023/09/28 07:03:05;;;;;;;9.20;2.80;;;16.20;99.90;;;;;;5109501;28;20487;-84
2023/09/28 07:05:33;;;;;;;12.13;2.97;;;16.30;99.90;;;;;;5109577;28;20031;-84
2023/09/28 07:07:59;;;;;;;16.70;3.40;;;16.30;99.90;;;;;;5109408;28;20051;-83
2023/09/28 07:10:25;;;;;;;15.63;3.05;;;16.30;99.90;;;;;;5109236;28;20104;-83
2023/09/28 07:12:50;;;;;;;16.27;2.75;;;16.40;99.90;;;;;;5109500;28;20164;-84
2023/09/28 07:15:16;;;;;;;18.77;3.80;;;16.30;99.90;;;;;;5109289;28;20080;-83
2023/09/28 07:17:42;;;;;;;15.80;3.55;;;16.30;99.90;;;;;;5109719;28;20047;-84
2023/09/28 07:20:09;;;;;;;16.23;3.22;;;16.30;99.90;;;;;;5091390;28;20019;-84
2023/09/28 07:22:35;;;;;;;14.35;3.25;;;16.30;99.90;;;;;;5088228;28;20027;-84
2023/09/28 07:25:01;;;;;;;17.15;3.70;;;16.30;99.90;;;;;;5117178;27;20123;-86
2023/09/28 07:27:31;;;;;;;20.20;3.35;;;16.40;99.90;;;;;;5094506;28;20551;-85
2023/09/28 07:29:57;;;;;;;20.02;3.92;;;16.50;99.90;;;;;;5076629;28;20521;-87
2023/09/28 07:32:23;;;;;;;13.25;3.10;;;16.50;99.90;;;;;;5109120;28;20445;-85
2023/09/28 07:34:49;;;;;;;17.88;2.95;;;16.60;99.90;;;;;;5110364;28;20028;-84
2023/09/28 07:37:15;;;;;;;15.00;2.85;;;16.60;99.90;;;;;;5119833;27;20501;-85
2023/09/28 07:39:41;;;;;;;24.27;4.03;;;16.70;99.90;;;;;;5109713;27;20035;-87
2023/09/28 07:42:08;;;;;;;16.67;4.13;;;16.80;99.90;;;;;;5100746;28;20028;-84
2023/09/28 07:44:34;;;;;;;18.63;3.45;;;16.80;99.90;;;;;;5108318;28;20027;-83
2023/09/28 07:47:00;;;;;;;14.73;3.55;;;16.90;99.90;;;;;;5109261;28;20023;-83
2023/09/28 07:49:25;;;;;;;16.33;3.10;;;17.00;99.90;;;;;;5108129;28;20874;-84
2023/09/28 07:51:55;;;;;;;16.25;3.20;;;17.00;99.90;;;;;;5095590;28;20034;-83
2023/09/28 07:54:20;;;;;;;18.13;3.25;;;17.00;99.90;;;;;;5071176;28;20020;-85
2023/09/28 07:56:46;;;;;;;16.83;3.92;;;17.00;99.90;;;;;;5082504;28;20028;-85
2023/09/28 07:59:12;;;;;;;18.08;3.53;;;17.00;99.90;;;;;;5089624;28;20035;-85
2023/09/28 08:01:38;;;;;;;19.40;3.78;;;17.10;99.90;;;;;;5090059;28;20039;-86
2023/09/28 08:04:04;;;;;;;19.17;4.22;;;17.10;99.90;;;;;;5088683;28;20028;-85
2023/09/28 08:06:29;;;;;;;13.10;3.08;;;17.20;99.90;;;;;;5090250;28;20035;-85
2023/09/28 08:08:55;;;;;;;12.07;3.10;;;17.20;99.90;;;;;;5108120;28;20063;-85
2023/09/28 08:11:20;;;;;;;22.23;3.42;;;17.30;99.90;;;;;;5091313;28;20023;-85
2023/09/28 08:13:46;;;;;;;15.23;3.88;;;17.30;99.90;;;;;;5108875;28;20034;-86
2023/09/28 08:16:12;;;;;;;15.52;3.63;;;17.40;99.90;;;;;;5108672;28;20023;-87
2023/09/28 08:18:37;;;;;;;15.60;3.45;;;17.50;99.90;;;;;;5108715;28;20037;-86
2023/09/28 08:21:03;;;;;;;17.15;3.17;;;17.60;99.90;;;;;;5106674;28;20027;-86
2023/09/28 08:23:30;;;;;;;19.17;3.53;;;17.60;99.90;;;;;;5108196;28;20023;-86
2023/09/28 08:25:57;;;;;;;20.88;3.30;;;17.70;99.90;;;;;;5088722;28;20532;-86
2023/09/28 08:28:24;;;;;;;17.30;3.65;;;17.70;99.90;;;;;;5118535;28;20024;-85
2023/09/28 08:30:49;;;;;;;14.43;3.47;;;17.80;99.90;;;;;;5091202;28;20467;-85
2023/09/28 08:33:16;;;;;;;17.80;3.42;;;17.80;99.90;;;;;;5107898;28;20027;-89
2023/09/28 08:35:50;;;;;;;19.40;4.00;;;17.90;99.90;;;;;;5108622;28;20433;-88
2023/09/28 08:38:16;;;;;;;21.58;3.58;;;18.00;99.90;;;;;;5090648;28;20040;-87
2023/09/28 08:40:42;;;;;;;20.10;4.47;;;18.10;99.90;;;;;;5112628;28;20031;-87
2023/09/28 08:43:11;;;;;;;17.35;3.42;;;18.10;99.90;;;;;;5094598;28;20027;-87
2023/09/28 08:45:40;;;;;;;18.42;4.00;;;18.10;99.90;;;;;;5112821;28;20027;-87
2023/09/28 08:48:11;;;;;;;15.88;4.28;;;18.20;99.90;;;;;;5112611;28;20027;-87
2023/09/28 08:50:38;;;;;;;19.30;4.00;;;18.20;99.90;;;;;;5112475;28;20115;-86
2023/09/28 08:53:05;;;;;;;23.40;3.97;;;18.30;99.90;;;;;;5094357;28;20504;-89
2023/09/28 08:55:33;;;;;;;19.25;3.60;;;18.30;99.90;;;;;;5094258;28;20035;-87
2023/09/28 08:57:59;;;;;;;;;;;18.40;99.90;;;;;;5113217;28;20101;-87
2023/09/28 09:00:26;;;;;;;21.60;3.92;;;18.40;99.90;;;;;;5112936;28;19936;-87
2023/09/28 09:02:52;;;;;;;16.70;3.38;;;18.40;99.90;;;;;;5113138;28;20065;-87
2023/09/28 09:05:18;;;;;;;22.75;3.83;;;18.40;99.90;;;;;;5112101;28;20044;-89
2023/09/28 09:07:43;;;;;;;20.55;4.05;;;18.50;99.90;;;;;;5112119;28;20030;-86
2023/09/28 09:10:18;;;;;;;24.50;4.35;;;18.60;99.90;;;;;;5093471;28;20428;-87
2023/09/28 09:12:43;;;;;;;20.75;4.03;;;18.70;99.90;;;;;;5112299;28;20028;-86
2023/09/28 09:15:09;;;;;;;23.63;4.03;;;18.80;99.90;;;;;;5112144;28;20376;-87
2023/09/28 09:17:37;;;;;;;23.98;3.97;;;18.80;99.90;;;;;;5112292;28;20019;-87
2023/09/28 09:20:08;;;;;;;21.33;3.97;;;18.90;99.90;;;;;;5094019;28;20077;-85
2023/09/28 09:22:35;;;;;;;19.58;3.53;;;19.00;99.90;;;;;;5093129;28;20040;-85
2023/09/28 09:25:02;;;;;;;18.98;3.75;;;19.00;99.90;;;;;;5093718;28;20049;-87
2023/09/28 09:27:28;;;;;;;27.05;4.60;;;19.10;99.90;;;;;;5111216;28;20027;-88
2023/09/28 09:30:10;;;;;;;24.83;4.47;;;19.20;99.90;;;;;;5094524;28;20046;-87
2023/09/28 09:32:37;;;;;;;22.70;3.60;;;19.20;99.90;;;;;;5111382;28;20514;-88
2023/09/28 09:35:04;;;;;;;21.55;3.65;;;19.30;99.90;;;;;;5111442;28;20077;-89
2023/09/28 09:37:30;;;;;;;26.67;4.18;;;19.40;99.90;;;;;;5093435;28;20034;-87
2023/09/28 09:40:12;;;;;;;26.10;5.82;;;19.50;99.90;;;;;;5112485;28;20111;-87
2023/09/28 09:42:38;;;;;;;20.55;4.20;;;19.60;99.90;;;;;;5093052;28;20110;-87
2023/09/28 09:45:07;;;;;;;29.83;4.13;;;19.60;99.90;;;;;;5110535;28;20059;-88
2023/09/28 09:47:33;;;;;;;23.00;4.22;;;19.70;99.90;;;;;;5091793;28;20028;-86
2023/09/28 09:50:00;;;;;;;28.00;4.45;;;19.80;99.90;;;;;;5091634;28;20036;-85
2023/09/28 09:52:28;;;;;;;19.20;3.80;;;19.90;99.90;;;;;;5111911;28;20024;-87
2023/09/28 09:54:55;;;;;;;25.48;4.40;;;19.90;99.90;;;;;;5112163;28;20024;-85
2023/09/28 09:57:23;;;;;;;21.70;4.10;;;20.00;99.90;;;;;;5091694;28;20028;-86
2023/09/28 09:59:53;;;;;;;28.95;4.25;;;19.90;99.90;;;;;;5092716;28;20035;-85
2023/09/28 10:02:26;;;;;;;20.60;4.10;;;19.90;99.90;;;;;;5092801;28;20078;-87
2023/09/28 10:04:55;;;;;;;18.90;4.07;;;20.00;99.90;;;;;;5105534;28;20531;-87
2023/09/28 10:07:26;;;;;;;23.52;4.43;;;20.00;99.90;;;;;;5092789;28;20124;-88
2023/09/28 10:09:54;;;;;;;18.52;3.78;;;20.00;99.90;;;;;;5111419;28;20031;-86
2023/09/28 10:12:21;;;;;;;28.20;5.95;;;20.00;99.90;;;;;;5092141;28;20039;-87
2023/09/28 10:14:47;;;;;;;20.75;4.00;;;20.00;99.90;;;;;;5081366;28;20118;-88
2023/09/28 10:17:13;;;;;;;23.50;4.28;;;20.10;99.90;;;;;;5104743;28;20158;-87
2023/09/28 10:19:40;;;;;;;20.85;4.00;;;20.20;99.90;;;;;;5105186;28;20035;-86
2023/09/28 10:22:05;;;;;;;18.70;3.65;;;20.40;99.90;;;;;;5110304;28;20028;-86
2023/09/28 10:24:35;;;;;;;21.98;4.10;;;20.50;99.90;;;;;;5110431;28;20403;-86
2023/09/28 10:27:11;;;;;;;22.77;4.35;;;20.60;99.90;;;;;;5109763;28;20433;-86
2023/09/28 10:29:37;;;;;;;27.73;4.43;;;20.70;99.90;;;;;;5110445;28;20375;-86
2023/09/28 10:32:26;;;;;;;27.98;4.40;;;20.70;99.90;;;;;;5092115;28;20031;-86
2023/09/28 10:35:11;;;;;;;24.65;4.00;;;20.80;99.90;;;;;;5091873;28;20028;-85
2023/09/28 10:37:37;;;;;;;22.70;3.95;;;20.80;99.90;;;;;;5110495;28;20111;-85
2023/09/28 10:40:05;;;;;;;19.40;4.15;;;20.70;99.90;;;;;;5110235;28;20020;-86
2023/09/28 10:42:32;;;;;;;22.60;3.97;;;20.70;99.90;;;;;;5110334;28;20031;-86
2023/09/28 10:45:00;;;;;;;24.52;4.57;;;20.70;99.90;;;;;;5109988;28;20026;-86
2023/09/28 10:47:27;;;;;;;27.27;3.90;;;20.70;99.90;;;;;;5091743;28;20031;-86
2023/09/28 10:50:00;;;;;;;19.10;3.97;;;20.70;99.90;;;;;;5110136;28;20027;-86
2023/09/28 10:52:25;;;;;;;21.42;4.40;;;20.80;99.90;;;;;;5092549;28;20536;-86
2023/09/28 10:54:51;;;;;;;23.38;4.05;;;20.80;99.90;;;;;;5109919;28;20032;-86
2023/09/28 10:57:17;;;;;;;25.73;5.18;;;20.90;99.90;;;;;;5109044;28;20055;-86
2023/09/28 10:59:42;;;;;;;19.63;4.57;;;21.00;99.90;;;;;;5109641;28;20065;-86
2023/09/28 11:02:09;;;;;;;22.13;4.57;;;21.00;99.90;;;;;;5091398;28;20020;-87
2023/09/28 11:04:39;;;;;;;25.90;4.18;;;21.00;99.90;;;;;;5089515;28;20024;-87
2023/09/28 11:07:06;;;;;;;17.08;4.10;;;21.00;99.90;;;;;;5089736;28;20074;-87
2023/09/28 11:09:31;;;;;;;16.95;3.85;;;20.90;99.90;;;;;;5071389;28;20032;-85
2023/09/28 11:11:57;;;;;;;17.95;3.95;;;20.80;99.90;;;;;;5086940;28;20085;-88
2023/09/28 11:14:26;;;;;;;15.73;3.67;;;20.80;99.90;;;;;;5109822;28;20027;-88
2023/09/28 11:16:52;;;;;;;23.80;4.47;;;20.80;99.90;;;;;;5109834;28;20110;-86
2023/09/28 11:19:19;;;;;;;20.17;3.55;;;20.80;99.90;;;;;;5091369;28;20031;-89
2023/09/28 11:21:45;;;;;;;20.85;3.67;;;20.70;99.90;;;;;;5108092;28;21440;-88
2023/09/28 11:24:14;;;;;;;22.23;3.67;;;20.70;99.90;;;;;;5109515;28;20023;-87
2023/09/28 11:26:40;;;;;;;22.25;4.13;;;20.70;99.90;;;;;;5108889;28;20023;-88
2023/09/28 11:29:06;;;;;;;18.63;4.28;;;20.70;99.90;;;;;;5109494;28;20505;-89
2023/09/28 11:31:35;;;;;;;15.23;3.30;;;20.70;99.90;;;;;;5110127;28;20039;-89
2023/09/28 11:34:05;;;;;;;13.75;3.17;;;20.70;99.90;;;;;;5091830;28;20035;-88
2023/09/28 11:36:32;;;;;;;15.38;3.25;;;20.60;99.90;;;;;;5109981;28;20035;-86
2023/09/28 11:38:59;;;;;;;19.58;3.90;;;20.60;99.90;;;;;;5109641;28;20032;-87
2023/09/28 11:41:26;;;;;;;18.10;4.13;;;20.60;99.90;;;;;;5108828;28;20023;-87
2023/09/28 11:43:59;;;;;;;21.38;3.42;;;20.60;99.90;;;;;;5097153;28;20536;-85
2023/09/28 11:46:27;;;;;;;15.80;3.63;;;20.60;99.90;;;;;;5109054;28;20027;-88
2023/09/28 11:49:08;;;;;;;17.30;3.55;;;20.60;99.90;;;;;;5108871;28;20777;-85
2023/09/28 11:51:35;;;;;;;19.27;3.70;;;20.70;99.90;;;;;;5090385;28;20516;-86
2023/09/28 11:54:14;;;;;;;13.25;2.72;;;20.70;99.90;;;;;;5109836;28;20019;-85
2023/09/28 11:56:40;;;;;;;18.60;3.67;;;20.70;99.90;;;;;;5090526;28;20030;-86
2023/09/28 11:59:09;;;;;;;17.98;3.83;;;20.70;99.90;;;;;;5090180;28;20437;-86
2023/09/28 12:01:35;;;;;;;16.23;3.08;;;20.70;99.90;;;;;;5108610;28;20099;-87
2023/09/28 12:04:00;;;;;;;19.77;3.75;;;20.70;99.90;;;;;;5091221;28;20122;-85
2023/09/28 12:06:26;;;;;;;15.90;3.03;;;20.70;99.90;;;;;;5090229;28;20024;-87
2023/09/28 12:08:53;;;;;;;17.05;3.35;;;20.70;99.90;;;;;;5108037;28;20024;-87
2023/09/28 12:11:19;;;;;;;11.10;2.88;;;20.70;99.90;;;;;;5090353;28;20390;-89
2023/09/28 12:13:46;;;;;;;15.52;3.25;;;20.70;99.90;;;;;;5089991;28;20024;-86
2023/09/28 12:16:12;;;;;;;11.43;2.75;;;20.60;99.90;;;;;;5108903;28;20020;-88
2023/09/28 12:18:38;;;;;;;16.60;3.40;;;20.60;99.90;;;;;;5108574;28;20089;-87
2023/09/28 12:21:03;;;;;;;11.90;2.97;;;20.60;99.90;;;;;;5089711;28;20395;-86
2023/09/28 12:23:29;;;;;;;15.25;3.47;;;20.60;99.90;;;;;;5109445;28;20023;-86
2023/09/28 12:25:55;;;;;;;11.32;3.05;;;20.60;99.90;;;;;;5090172;28;20034;-86
2023/09/28 12:28:23;;;;;;;11.45;3.53;;;20.70;99.90;;;;;;5089748;28;20027;-86
2023/09/28 12:30:49;;;;;;;11.15;2.78;;;20.70;99.90;;;;;;5106311;28;20471;-87
2023/09/28 12:33:15;;;;;;;19.85;2.83;;;20.60;99.90;;;;;;5090118;28;20036;-87
2023/09/28 12:35:40;;;;;;;9.88;2.60;;;20.60;99.90;;;;;;5108570;28;20066;-87
2023/09/28 12:38:09;;;;;;;11.27;2.92;;;20.60;99.90;;;;;;5108480;28;20412;-86
2023/09/28 12:40:35;;;;;;;8.13;2.42;;;20.60;99.90;;;;;;5107725;28;20478;-86